sensor_id;sensor_type;location;lat;lon;timestamp;P1;durP1;ratioP1;P2;durP2;ratioP2
13568;SDS011;6856;51.460;7.158;2022-11-06T00:01:25;5.37;;;2.67;;
13568;SDS011;6856;51.460;7.158;2022-11-06T00:04:00;4.63;;;2.80;;
13568;SDS011;6856;51.460;7.158;2022-11-06T00:06:34;6.03;;;3.00;;
13568;SDS011;6856;51.460;7.158;2022-11-06T00:09:19;3.87;;;2.77;;
13568;SDS011;6856;51.460;7.158;2022-11-06T00:11:53;6.47;;;2.80;;
13568;SDS011;6856;51.460;7.158;2022-11-06T00:14:28;5.83;;;2.90;;
13568;SDS011;6856;51.460;7.158;2022-11-06T00:17:01;4.40;;;2.57;;
13568;SDS011;6856;51.460;7.158;2022-11-06T00:19:36;3.30;;;2.60;;
13568;SDS011;6856;51.460;7.158;2022-11-06T00:22:10;4.10;;;2.63;;
13568;SDS011;6856;51.460;7.158;2022-11-06T00:24:43;4.37;;;2.67;;
13568;SDS011;6856;51.460;7.158;2022-11-06T00:27:17;4.20;;;2.50;;
13568;SDS011;6856;51.460;7.158;2022-11-06T00:29:50;5.33;;;2.67;;
13568;SDS011;6856;51.460;7.158;2022-11-06T00:32:24;4.90;;;2.33;;
13568;SDS011;6856;51.460;7.158;2022-11-06T00:34:59;3.37;;;2.37;;
13568;SDS011;6856;51.460;7.158;2022-11-06T00:37:33;3.33;;;2.30;;
13568;SDS011;6856;51.460;7.158;2022-11-06T00:40:11;2.83;;;2.10;;
13568;SDS011;6856;51.460;7.158;2022-11-06T00:42:45;3.83;;;2.10;;
13568;SDS011;6856;51.460;7.158;2022-11-06T00:45:18;4.43;;;2.33;;
13568;SDS011;6856;51.460;7.158;2022-11-06T00:47:52;4.87;;;2.33;;
13568;SDS011;6856;51.460;7.158;2022-11-06T00:50:27;4.63;;;2.37;;
13568;SDS011;6856;51.460;7.158;2022-11-06T00:53:01;5.00;;;1.97;;
13568;SDS011;6856;51.460;7.158;2022-11-06T00:55:35;4.43;;;2.40;;
13568;SDS011;6856;51.460;7.158;2022-11-06T00:58:08;3.57;;;2.40;;
13568;SDS011;6856;51.460;7.158;2022-11-06T01:00:42;4.87;;;2.40;;
13568;SDS011;6856;51.460;7.158;2022-11-06T01:03:15;3.87;;;2.10;;
13568;SDS011;6856;51.460;7.158;2022-11-06T01:05:50;4.20;;;1.90;;
13568;SDS011;6856;51.460;7.158;2022-11-06T01:08:25;4.97;;;2.20;;
13568;SDS011;6856;51.460;7.158;2022-11-06T01:11:03;4.27;;;2.20;;
13568;SDS011;6856;51.460;7.158;2022-11-06T01:13:39;2.40;;;1.87;;
13568;SDS011;6856;51.460;7.158;2022-11-06T01:16:14;3.40;;;1.90;;
13568;SDS011;6856;51.460;7.158;2022-11-06T01:18:48;3.77;;;2.00;;
13568;SDS011;6856;51.460;7.158;2022-11-06T01:21:24;4.00;;;2.00;;
13568;SDS011;6856;51.460;7.158;2022-11-06T01:24:00;5.27;;;2.30;;
13568;SDS011;6856;51.460;7.158;2022-11-06T01:26:39;2.77;;;1.77;;
13568;SDS011;6856;51.460;7.158;2022-11-06T01:29:33;3.20;;;1.57;;
13568;SDS011;6856;51.460;7.158;2022-11-06T01:32:07;4.73;;;1.77;;
13568;SDS011;6856;51.460;7.158;2022-11-06T01:34:41;4.47;;;1.70;;
13568;SDS011;6856;51.460;7.158;2022-11-06T01:37:18;3.00;;;1.90;;
13568;SDS011;6856;51.460;7.158;2022-11-06T01:39:53;3.60;;;1.70;;
13568;SDS011;6856;51.460;7.158;2022-11-06T01:42:26;3.07;;;1.93;;
13568;SDS011;6856;51.460;7.158;2022-11-06T01:48:11;2.67;;;1.80;;
13568;SDS011;6856;51.460;7.158;2022-11-06T01:50:48;4.20;;;2.07;;
13568;SDS011;6856;51.460;7.158;2022-11-06T01:53:28;4.57;;;2.10;;
13568;SDS011;6856;51.460;7.158;2022-11-06T01:56:03;4.17;;;1.80;;
13568;SDS011;6856;51.460;7.158;2022-11-06T01:58:41;2.87;;;1.73;;
13568;SDS011;6856;51.460;7.158;2022-11-06T02:01:18;3.30;;;1.83;;
13568;SDS011;6856;51.460;7.158;2022-11-06T02:03:54;2.93;;;1.90;;
13568;SDS011;6856;51.460;7.158;2022-11-06T02:06:34;2.60;;;1.73;;
13568;SDS011;6856;51.460;7.158;2022-11-06T02:09:11;2.43;;;1.57;;
13568;SDS011;6856;51.460;7.158;2022-11-06T02:11:49;3.17;;;1.73;;
13568;SDS011;6856;51.460;7.158;2022-11-06T02:14:30;3.03;;;1.70;;
13568;SDS011;6856;51.460;7.158;2022-11-06T02:17:14;3.53;;;2.00;;
13568;SDS011;6856;51.460;7.158;2022-11-06T02:20:00;5.30;;;2.00;;
13568;SDS011;6856;51.460;7.158;2022-11-06T02:22:50;3.83;;;2.23;;
13568;SDS011;6856;51.460;7.158;2022-11-06T02:26:04;2.93;;;1.70;;
13568;SDS011;6856;51.460;7.158;2022-11-06T02:28:58;4.17;;;1.57;;
13568;SDS011;6856;51.460;7.158;2022-11-06T02:31:39;6.03;;;2.00;;
13568;SDS011;6856;51.460;7.158;2022-11-06T02:34:17;2.50;;;1.43;;
13568;SDS011;6856;51.460;7.158;2022-11-06T02:36:56;3.17;;;1.97;;
13568;SDS011;6856;51.460;7.158;2022-11-06T02:39:37;2.43;;;1.57;;
13568;SDS011;6856;51.460;7.158;2022-11-06T02:42:15;2.83;;;1.67;;
13568;SDS011;6856;51.460;7.158;2022-11-06T02:44:54;2.43;;;1.50;;
13568;SDS011;6856;51.460;7.158;2022-11-06T02:47:30;4.23;;;2.10;;
13568;SDS011;6856;51.460;7.158;2022-11-06T02:50:06;5.63;;;1.40;;
13568;SDS011;6856;51.460;7.158;2022-11-06T02:52:44;4.40;;;1.67;;
13568;SDS011;6856;51.460;7.158;2022-11-06T02:55:26;3.00;;;1.70;;
13568;SDS011;6856;51.460;7.158;2022-11-06T02:58:06;4.03;;;1.80;;
13568;SDS011;6856;51.460;7.158;2022-11-06T03:00:48;6.47;;;1.77;;
13568;SDS011;6856;51.460;7.158;2022-11-06T03:03:28;5.00;;;1.57;;
13568;SDS011;6856;51.460;7.158;2022-11-06T03:06:06;3.43;;;1.37;;
13568;SDS011;6856;51.460;7.158;2022-11-06T03:08:49;1.77;;;1.40;;
13568;SDS011;6856;51.460;7.158;2022-11-06T03:11:29;3.53;;;1.40;;
13568;SDS011;6856;51.460;7.158;2022-11-06T03:14:10;3.87;;;1.70;;
13568;SDS011;6856;51.460;7.158;2022-11-06T03:16:52;5.00;;;1.67;;
13568;SDS011;6856;51.460;7.158;2022-11-06T03:19:43;3.53;;;1.50;;
13568;SDS011;6856;51.460;7.158;2022-11-06T03:22:23;4.37;;;1.60;;
13568;SDS011;6856;51.460;7.158;2022-11-06T03:25:07;3.03;;;1.50;;
13568;SDS011;6856;51.460;7.158;2022-11-06T03:27:51;3.97;;;1.60;;
13568;SDS011;6856;51.460;7.158;2022-11-06T03:30:37;2.30;;;1.53;;
13568;SDS011;6856;51.460;7.158;2022-11-06T03:33:19;3.13;;;1.60;;
13568;SDS011;6856;51.460;7.158;2022-11-06T03:36:06;2.83;;;1.33;;
13568;SDS011;6856;51.460;7.158;2022-11-06T03:38:47;3.70;;;1.43;;
13568;SDS011;6856;51.460;7.158;2022-11-06T03:41:27;3.13;;;1.83;;
13568;SDS011;6856;51.460;7.158;2022-11-06T03:44:09;4.53;;;1.60;;
13568;SDS011;6856;51.460;7.158;2022-11-06T03:46:52;2.97;;;1.80;;
13568;SDS011;6856;51.460;7.158;2022-11-06T03:49:35;2.63;;;1.40;;
13568;SDS011;6856;51.460;7.158;2022-11-06T03:52:18;3.23;;;1.77;;
13568;SDS011;6856;51.460;7.158;2022-11-06T03:55:00;2.90;;;1.40;;
13568;SDS011;6856;51.460;7.158;2022-11-06T03:57:40;1.80;;;1.33;;
13568;SDS011;6856;51.460;7.158;2022-11-06T04:00:21;3.23;;;1.43;;
13568;SDS011;6856;51.460;7.158;2022-11-06T04:02:55;5.17;;;1.60;;
13568;SDS011;6856;51.460;7.158;2022-11-06T04:05:38;4.30;;;1.50;;
13568;SDS011;6856;51.460;7.158;2022-11-06T04:08:19;2.60;;;1.57;;
13568;SDS011;6856;51.460;7.158;2022-11-06T04:11:14;3.93;;;1.50;;
13568;SDS011;6856;51.460;7.158;2022-11-06T04:14:12;4.60;;;1.57;;
13568;SDS011;6856;51.460;7.158;2022-11-06T04:16:49;3.23;;;1.53;;
13568;SDS011;6856;51.460;7.158;2022-11-06T04:19:28;4.67;;;1.90;;
13568;SDS011;6856;51.460;7.158;2022-11-06T04:22:09;3.30;;;1.57;;
13568;SDS011;6856;51.460;7.158;2022-11-06T04:25:08;2.80;;;1.30;;
13568;SDS011;6856;51.460;7.158;2022-11-06T04:28:21;4.13;;;1.80;;
13568;SDS011;6856;51.460;7.158;2022-11-06T04:31:06;2.43;;;1.47;;
13568;SDS011;6856;51.460;7.158;2022-11-06T04:33:49;2.60;;;1.27;;
13568;SDS011;6856;51.460;7.158;2022-11-06T04:36:31;3.50;;;1.43;;
13568;SDS011;6856;51.460;7.158;2022-11-06T04:39:17;3.30;;;1.60;;
13568;SDS011;6856;51.460;7.158;2022-11-06T04:42:03;2.13;;;1.30;;
13568;SDS011;6856;51.460;7.158;2022-11-06T04:44:49;4.00;;;1.60;;
13568;SDS011;6856;51.460;7.158;2022-11-06T04:47:33;2.20;;;1.27;;
13568;SDS011;6856;51.460;7.158;2022-11-06T04:50:10;3.77;;;1.37;;
13568;SDS011;6856;51.460;7.158;2022-11-06T04:52:47;2.63;;;1.30;;
13568;SDS011;6856;51.460;7.158;2022-11-06T04:55:23;3.00;;;1.50;;
13568;SDS011;6856;51.460;7.158;2022-11-06T04:57:57;3.40;;;1.53;;
13568;SDS011;6856;51.460;7.158;2022-11-06T05:00:31;1.40;;;1.10;;
13568;SDS011;6856;51.460;7.158;2022-11-06T05:03:05;3.70;;;1.50;;
13568;SDS011;6856;51.460;7.158;2022-11-06T05:05:39;2.30;;;1.23;;
13568;SDS011;6856;51.460;7.158;2022-11-06T05:08:14;1.83;;;1.20;;
13568;SDS011;6856;51.460;7.158;2022-11-06T05:10:50;5.10;;;1.30;;
13568;SDS011;6856;51.460;7.158;2022-11-06T05:13:24;3.23;;;1.40;;
13568;SDS011;6856;51.460;7.158;2022-11-06T05:15:57;3.83;;;1.37;;
13568;SDS011;6856;51.460;7.158;2022-11-06T05:18:32;3.40;;;1.50;;
13568;SDS011;6856;51.460;7.158;2022-11-06T05:21:06;1.93;;;1.07;;
13568;SDS011;6856;51.460;7.158;2022-11-06T05:23:57;3.17;;;1.10;;
13568;SDS011;6856;51.460;7.158;2022-11-06T05:26:32;3.90;;;1.60;;
13568;SDS011;6856;51.460;7.158;2022-11-06T05:29:06;2.07;;;1.17;;
13568;SDS011;6856;51.460;7.158;2022-11-06T05:31:41;2.93;;;1.20;;
13568;SDS011;6856;51.460;7.158;2022-11-06T05:34:15;3.73;;;1.20;;
13568;SDS011;6856;51.460;7.158;2022-11-06T05:36:48;2.73;;;1.17;;
13568;SDS011;6856;51.460;7.158;2022-11-06T05:39:22;1.93;;;1.10;;
13568;SDS011;6856;51.460;7.158;2022-11-06T05:41:57;4.20;;;1.50;;
13568;SDS011;6856;51.460;7.158;2022-11-06T05:44:31;3.07;;;1.23;;
13568;SDS011;6856;51.460;7.158;2022-11-06T05:47:04;3.60;;;1.43;;
13568;SDS011;6856;51.460;7.158;2022-11-06T05:49:37;2.30;;;1.00;;
13568;SDS011;6856;51.460;7.158;2022-11-06T05:52:12;4.47;;;1.20;;
13568;SDS011;6856;51.460;7.158;2022-11-06T05:54:46;2.73;;;1.10;;
13568;SDS011;6856;51.460;7.158;2022-11-06T05:57:20;2.40;;;1.20;;
13568;SDS011;6856;51.460;7.158;2022-11-06T05:59:54;2.47;;;1.37;;
13568;SDS011;6856;51.460;7.158;2022-11-06T06:02:28;1.37;;;1.00;;
13568;SDS011;6856;51.460;7.158;2022-11-06T06:05:02;2.60;;;1.23;;
13568;SDS011;6856;51.460;7.158;2022-11-06T06:07:37;2.47;;;1.30;;
13568;SDS011;6856;51.460;7.158;2022-11-06T06:10:10;3.17;;;1.30;;
13568;SDS011;6856;51.460;7.158;2022-11-06T06:12:45;4.77;;;1.47;;
13568;SDS011;6856;51.460;7.158;2022-11-06T06:15:21;2.27;;;1.27;;
13568;SDS011;6856;51.460;7.158;2022-11-06T06:17:56;2.73;;;1.20;;
13568;SDS011;6856;51.460;7.158;2022-11-06T06:20:30;1.87;;;1.10;;
13568;SDS011;6856;51.460;7.158;2022-11-06T06:23:04;5.30;;;1.40;;
13568;SDS011;6856;51.460;7.158;2022-11-06T06:25:40;2.37;;;1.50;;
13568;SDS011;6856;51.460;7.158;2022-11-06T06:28:16;2.40;;;1.10;;
13568;SDS011;6856;51.460;7.158;2022-11-06T06:30:50;2.33;;;1.40;;
13568;SDS011;6856;51.460;7.158;2022-11-06T06:33:31;2.50;;;1.30;;
13568;SDS011;6856;51.460;7.158;2022-11-06T06:36:07;4.37;;;1.20;;
13568;SDS011;6856;51.460;7.158;2022-11-06T06:38:41;3.30;;;1.37;;
13568;SDS011;6856;51.460;7.158;2022-11-06T06:41:14;3.17;;;1.53;;
13568;SDS011;6856;51.460;7.158;2022-11-06T06:43:49;1.50;;;1.10;;
13568;SDS011;6856;51.460;7.158;2022-11-06T06:46:23;4.33;;;1.33;;
13568;SDS011;6856;51.460;7.158;2022-11-06T06:48:56;3.93;;;1.70;;
13568;SDS011;6856;51.460;7.158;2022-11-06T06:51:30;4.00;;;1.20;;
13568;SDS011;6856;51.460;7.158;2022-11-06T06:54:04;5.10;;;1.47;;
13568;SDS011;6856;51.460;7.158;2022-11-06T06:56:38;2.53;;;1.30;;
13568;SDS011;6856;51.460;7.158;2022-11-06T06:59:13;3.53;;;1.20;;
13568;SDS011;6856;51.460;7.158;2022-11-06T07:01:47;1.77;;;1.00;;
13568;SDS011;6856;51.460;7.158;2022-11-06T07:04:20;3.03;;;1.50;;
13568;SDS011;6856;51.460;7.158;2022-11-06T07:06:54;3.00;;;1.40;;
13568;SDS011;6856;51.460;7.158;2022-11-06T07:09:28;3.17;;;1.27;;
13568;SDS011;6856;51.460;7.158;2022-11-06T07:12:03;2.60;;;1.20;;
13568;SDS011;6856;51.460;7.158;2022-11-06T07:14:38;3.37;;;1.20;;
13568;SDS011;6856;51.460;7.158;2022-11-06T07:17:12;3.93;;;1.57;;
13568;SDS011;6856;51.460;7.158;2022-11-06T07:19:45;2.70;;;1.13;;
13568;SDS011;6856;51.460;7.158;2022-11-06T07:22:18;2.73;;;1.30;;
13568;SDS011;6856;51.460;7.158;2022-11-06T07:25:05;1.60;;;1.13;;
13568;SDS011;6856;51.460;7.158;2022-11-06T07:27:40;3.27;;;1.27;;
13568;SDS011;6856;51.460;7.158;2022-11-06T07:30:15;1.40;;;1.10;;
13568;SDS011;6856;51.460;7.158;2022-11-06T07:32:49;3.27;;;1.10;;
13568;SDS011;6856;51.460;7.158;2022-11-06T07:35:22;3.93;;;1.43;;
13568;SDS011;6856;51.460;7.158;2022-11-06T07:37:56;1.93;;;1.17;;
13568;SDS011;6856;51.460;7.158;2022-11-06T07:40:30;3.37;;;1.40;;
13568;SDS011;6856;51.460;7.158;2022-11-06T07:43:04;2.47;;;1.13;;
13568;SDS011;6856;51.460;7.158;2022-11-06T07:45:41;3.53;;;1.73;;
13568;SDS011;6856;51.460;7.158;2022-11-06T07:48:16;4.43;;;1.70;;
13568;SDS011;6856;51.460;7.158;2022-11-06T07:50:49;3.30;;;1.40;;
13568;SDS011;6856;51.460;7.158;2022-11-06T07:53:23;2.30;;;1.40;;
13568;SDS011;6856;51.460;7.158;2022-11-06T07:55:57;2.80;;;1.40;;
13568;SDS011;6856;51.460;7.158;2022-11-06T07:58:32;2.63;;;1.40;;
13568;SDS011;6856;51.460;7.158;2022-11-06T08:01:10;3.07;;;1.13;;
13568;SDS011;6856;51.460;7.158;2022-11-06T08:03:49;2.23;;;1.30;;
13568;SDS011;6856;51.460;7.158;2022-11-06T08:06:22;1.80;;;1.03;;
13568;SDS011;6856;51.460;7.158;2022-11-06T08:08:56;2.30;;;1.40;;
13568;SDS011;6856;51.460;7.158;2022-11-06T08:11:30;2.83;;;1.20;;
13568;SDS011;6856;51.460;7.158;2022-11-06T08:14:03;2.63;;;1.13;;
13568;SDS011;6856;51.460;7.158;2022-11-06T08:16:38;3.07;;;1.40;;
13568;SDS011;6856;51.460;7.158;2022-11-06T08:19:12;3.77;;;1.40;;
13568;SDS011;6856;51.460;7.158;2022-11-06T08:21:45;3.70;;;1.30;;
13568;SDS011;6856;51.460;7.158;2022-11-06T08:24:19;2.47;;;1.10;;
13568;SDS011;6856;51.460;7.158;2022-11-06T08:26:53;4.47;;;1.50;;
13568;SDS011;6856;51.460;7.158;2022-11-06T08:29:27;1.37;;;1.10;;
13568;SDS011;6856;51.460;7.158;2022-11-06T08:32:02;2.40;;;1.30;;
13568;SDS011;6856;51.460;7.158;2022-11-06T08:34:36;3.17;;;1.50;;
13568;SDS011;6856;51.460;7.158;2022-11-06T08:37:10;2.27;;;1.23;;
13568;SDS011;6856;51.460;7.158;2022-11-06T08:39:43;4.10;;;1.40;;
13568;SDS011;6856;51.460;7.158;2022-11-06T08:42:17;2.17;;;1.20;;
13568;SDS011;6856;51.460;7.158;2022-11-06T08:44:50;4.00;;;2.10;;
13568;SDS011;6856;51.460;7.158;2022-11-06T08:47:26;4.83;;;2.13;;
13568;SDS011;6856;51.460;7.158;2022-11-06T08:50:00;4.07;;;2.00;;
13568;SDS011;6856;51.460;7.158;2022-11-06T08:52:34;2.83;;;1.70;;
13568;SDS011;6856;51.460;7.158;2022-11-06T08:55:08;4.17;;;1.90;;
13568;SDS011;6856;51.460;7.158;2022-11-06T08:57:41;2.63;;;1.40;;
13568;SDS011;6856;51.460;7.158;2022-11-06T09:00:15;6.30;;;1.70;;
13568;SDS011;6856;51.460;7.158;2022-11-06T09:02:55;4.43;;;1.77;;
13568;SDS011;6856;51.460;7.158;2022-11-06T09:05:30;3.27;;;1.37;;
13568;SDS011;6856;51.460;7.158;2022-11-06T09:08:04;2.73;;;1.40;;
13568;SDS011;6856;51.460;7.158;2022-11-06T09:10:38;2.83;;;1.10;;
13568;SDS011;6856;51.460;7.158;2022-11-06T09:13:14;3.77;;;1.20;;
13568;SDS011;6856;51.460;7.158;2022-11-06T09:15:50;2.20;;;1.13;;
13568;SDS011;6856;51.460;7.158;2022-11-06T09:18:25;2.77;;;1.10;;
13568;SDS011;6856;51.460;7.158;2022-11-06T09:21:01;1.60;;;1.20;;
13568;SDS011;6856;51.460;7.158;2022-11-06T09:23:36;5.83;;;1.50;;
13568;SDS011;6856;51.460;7.158;2022-11-06T09:26:09;2.83;;;1.20;;
13568;SDS011;6856;51.460;7.158;2022-11-06T09:28:43;1.67;;;1.10;;
13568;SDS011;6856;51.460;7.158;2022-11-06T09:31:18;2.83;;;1.27;;
13568;SDS011;6856;51.460;7.158;2022-11-06T09:33:53;2.10;;;1.20;;
13568;SDS011;6856;51.460;7.158;2022-11-06T09:36:27;6.43;;;1.67;;
13568;SDS011;6856;51.460;7.158;2022-11-06T09:39:00;1.77;;;1.20;;
13568;SDS011;6856;51.460;7.158;2022-11-06T09:41:36;2.47;;;1.20;;
13568;SDS011;6856;51.460;7.158;2022-11-06T09:44:31;3.83;;;1.50;;
13568;SDS011;6856;51.460;7.158;2022-11-06T09:47:23;1.27;;;0.90;;
13568;SDS011;6856;51.460;7.158;2022-11-06T09:50:05;2.20;;;1.10;;
13568;SDS011;6856;51.460;7.158;2022-11-06T09:52:49;1.37;;;0.97;;
13568;SDS011;6856;51.460;7.158;2022-11-06T09:55:37;3.63;;;1.40;;
13568;SDS011;6856;51.460;7.158;2022-11-06T09:58:16;1.37;;;0.87;;
13568;SDS011;6856;51.460;7.158;2022-11-06T10:00:54;3.07;;;1.13;;
13568;SDS011;6856;51.460;7.158;2022-11-06T10:03:35;2.20;;;1.10;;
13568;SDS011;6856;51.460;7.158;2022-11-06T10:06:18;3.00;;;1.50;;
13568;SDS011;6856;51.460;7.158;2022-11-06T10:08:55;2.97;;;1.20;;
13568;SDS011;6856;51.460;7.158;2022-11-06T10:11:38;4.37;;;1.30;;
13568;SDS011;6856;51.460;7.158;2022-11-06T10:14:30;2.73;;;1.07;;
13568;SDS011;6856;51.460;7.158;2022-11-06T10:17:26;2.27;;;1.10;;
13568;SDS011;6856;51.460;7.158;2022-11-06T10:20:17;2.07;;;1.10;;
13568;SDS011;6856;51.460;7.158;2022-11-06T10:23:04;1.83;;;1.10;;
13568;SDS011;6856;51.460;7.158;2022-11-06T10:25:52;1.90;;;1.00;;
13568;SDS011;6856;51.460;7.158;2022-11-06T10:28:43;3.63;;;1.40;;
13568;SDS011;6856;51.460;7.158;2022-11-06T10:31:49;2.80;;;1.23;;
13568;SDS011;6856;51.460;7.158;2022-11-06T10:34:44;3.00;;;1.10;;
13568;SDS011;6856;51.460;7.158;2022-11-06T10:37:25;2.87;;;1.07;;
13568;SDS011;6856;51.460;7.158;2022-11-06T10:40:04;1.97;;;1.17;;
13568;SDS011;6856;51.460;7.158;2022-11-06T10:42:51;3.37;;;1.50;;
13568;SDS011;6856;51.460;7.158;2022-11-06T10:45:33;2.73;;;1.03;;
13568;SDS011;6856;51.460;7.158;2022-11-06T10:48:17;2.27;;;1.20;;
13568;SDS011;6856;51.460;7.158;2022-11-06T10:51:05;1.97;;;1.10;;
13568;SDS011;6856;51.460;7.158;2022-11-06T10:53:58;4.47;;;1.17;;
13568;SDS011;6856;51.460;7.158;2022-11-06T10:56:54;3.53;;;1.40;;
13568;SDS011;6856;51.460;7.158;2022-11-06T10:59:41;3.33;;;1.40;;
13568;SDS011;6856;51.460;7.158;2022-11-06T11:02:20;2.83;;;1.33;;
13568;SDS011;6856;51.460;7.158;2022-11-06T11:04:59;3.37;;;1.03;;
13568;SDS011;6856;51.460;7.158;2022-11-06T11:07:42;2.67;;;1.17;;
13568;SDS011;6856;51.460;7.158;2022-11-06T11:10:25;4.63;;;1.50;;
13568;SDS011;6856;51.460;7.158;2022-11-06T11:13:05;3.70;;;1.37;;
13568;SDS011;6856;51.460;7.158;2022-11-06T11:15:52;2.50;;;0.97;;
13568;SDS011;6856;51.460;7.158;2022-11-06T11:18:26;4.37;;;1.20;;
13568;SDS011;6856;51.460;7.158;2022-11-06T11:21:04;2.73;;;1.20;;
13568;SDS011;6856;51.460;7.158;2022-11-06T11:24:03;2.93;;;1.43;;
13568;SDS011;6856;51.460;7.158;2022-11-06T11:26:42;5.93;;;3.60;;
13568;SDS011;6856;51.460;7.158;2022-11-06T11:29:22;5.20;;;2.53;;
13568;SDS011;6856;51.460;7.158;2022-11-06T11:32:01;3.77;;;2.03;;
13568;SDS011;6856;51.460;7.158;2022-11-06T11:34:42;4.47;;;1.70;;
13568;SDS011;6856;51.460;7.158;2022-11-06T11:37:26;5.03;;;3.10;;
13568;SDS011;6856;51.460;7.158;2022-11-06T11:40:17;4.90;;;2.90;;
13568;SDS011;6856;51.460;7.158;2022-11-06T11:43:22;2.90;;;1.70;;
13568;SDS011;6856;51.460;7.158;2022-11-06T11:46:04;4.60;;;1.63;;
13568;SDS011;6856;51.460;7.158;2022-11-06T11:48:55;2.17;;;1.30;;
13568;SDS011;6856;51.460;7.158;2022-11-06T11:51:33;2.90;;;1.10;;
13568;SDS011;6856;51.460;7.158;2022-11-06T11:54:18;4.37;;;1.63;;
13568;SDS011;6856;51.460;7.158;2022-11-06T11:56:57;3.97;;;1.37;;
13568;SDS011;6856;51.460;7.158;2022-11-06T11:59:40;1.87;;;1.07;;
13568;SDS011;6856;51.460;7.158;2022-11-06T12:02:19;2.10;;;1.20;;
13568;SDS011;6856;51.460;7.158;2022-11-06T12:05:00;2.13;;;1.17;;
13568;SDS011;6856;51.460;7.158;2022-11-06T12:07:42;1.90;;;1.17;;
13568;SDS011;6856;51.460;7.158;2022-11-06T12:10:25;2.77;;;1.40;;
13568;SDS011;6856;51.460;7.158;2022-11-06T12:13:04;3.10;;;1.20;;
13568;SDS011;6856;51.460;7.158;2022-11-06T12:15:48;2.70;;;1.30;;
13568;SDS011;6856;51.460;7.158;2022-11-06T12:18:31;2.50;;;1.40;;
13568;SDS011;6856;51.460;7.158;2022-11-06T12:21:11;2.57;;;1.23;;
13568;SDS011;6856;51.460;7.158;2022-11-06T12:23:53;3.50;;;1.53;;
13568;SDS011;6856;51.460;7.158;2022-11-06T12:26:34;3.43;;;1.60;;
13568;SDS011;6856;51.460;7.158;2022-11-06T12:29:18;4.37;;;1.63;;
13568;SDS011;6856;51.460;7.158;2022-11-06T12:31:56;4.70;;;1.80;;
13568;SDS011;6856;51.460;7.158;2022-11-06T12:34:42;2.30;;;1.13;;
13568;SDS011;6856;51.460;7.158;2022-11-06T12:37:25;3.00;;;1.20;;
13568;SDS011;6856;51.460;7.158;2022-11-06T12:40:15;2.20;;;1.20;;
13568;SDS011;6856;51.460;7.158;2022-11-06T12:42:58;2.80;;;1.40;;
13568;SDS011;6856;51.460;7.158;2022-11-06T12:45:51;3.27;;;1.33;;
13568;SDS011;6856;51.460;7.158;2022-11-06T12:52:25;4.13;;;1.30;;
13568;SDS011;6856;51.460;7.158;2022-11-06T12:55:15;3.17;;;1.17;;
13568;SDS011;6856;51.460;7.158;2022-11-06T12:58:05;3.13;;;1.43;;
13568;SDS011;6856;51.460;7.158;2022-11-06T13:01:08;3.97;;;1.40;;
13568;SDS011;6856;51.460;7.158;2022-11-06T13:04:03;2.63;;;1.70;;
13568;SDS011;6856;51.460;7.158;2022-11-06T13:13:15;2.97;;;1.73;;
13568;SDS011;6856;51.460;7.158;2022-11-06T13:16:14;4.97;;;1.40;;
13568;SDS011;6856;51.460;7.158;2022-11-06T13:19:03;4.20;;;1.70;;
13568;SDS011;6856;51.460;7.158;2022-11-06T13:21:55;4.23;;;1.60;;
13568;SDS011;6856;51.460;7.158;2022-11-06T13:24:41;4.10;;;1.40;;
13568;SDS011;6856;51.460;7.158;2022-11-06T13:27:23;3.80;;;1.63;;
13568;SDS011;6856;51.460;7.158;2022-11-06T13:30:10;2.90;;;1.53;;
13568;SDS011;6856;51.460;7.158;2022-11-06T13:32:51;3.67;;;1.40;;
13568;SDS011;6856;51.460;7.158;2022-11-06T13:35:35;4.43;;;1.37;;
13568;SDS011;6856;51.460;7.158;2022-11-06T13:38:13;2.30;;;1.30;;
13568;SDS011;6856;51.460;7.158;2022-11-06T13:40:54;2.83;;;1.60;;
13568;SDS011;6856;51.460;7.158;2022-11-06T13:43:34;4.07;;;1.30;;
13568;SDS011;6856;51.460;7.158;2022-11-06T13:46:18;1.87;;;1.10;;
13568;SDS011;6856;51.460;7.158;2022-11-06T13:49:04;4.30;;;1.90;;
13568;SDS011;6856;51.460;7.158;2022-11-06T13:51:50;3.27;;;1.10;;
13568;SDS011;6856;51.460;7.158;2022-11-06T13:57:44;1.20;;;1.00;;
13568;SDS011;6856;51.460;7.158;2022-11-06T14:00:53;2.30;;;1.17;;
13568;SDS011;6856;51.460;7.158;2022-11-06T14:03:48;2.50;;;1.30;;
13568;SDS011;6856;51.460;7.158;2022-11-06T14:06:46;2.43;;;1.33;;
13568;SDS011;6856;51.460;7.158;2022-11-06T14:09:25;1.10;;;1.00;;
13568;SDS011;6856;51.460;7.158;2022-11-06T14:12:04;2.47;;;1.37;;
13568;SDS011;6856;51.460;7.158;2022-11-06T14:14:47;1.83;;;1.10;;
13568;SDS011;6856;51.460;7.158;2022-11-06T14:17:23;3.00;;;1.00;;
13568;SDS011;6856;51.460;7.158;2022-11-06T14:20:01;1.90;;;1.10;;
13568;SDS011;6856;51.460;7.158;2022-11-06T14:22:39;2.30;;;1.10;;
13568;SDS011;6856;51.460;7.158;2022-11-06T14:28:29;2.77;;;1.20;;
13568;SDS011;6856;51.460;7.158;2022-11-06T14:31:06;1.93;;;1.07;;
13568;SDS011;6856;51.460;7.158;2022-11-06T14:33:57;2.57;;;1.20;;
13568;SDS011;6856;51.460;7.158;2022-11-06T14:36:34;3.37;;;1.27;;
13568;SDS011;6856;51.460;7.158;2022-11-06T14:39:11;1.60;;;1.03;;
13568;SDS011;6856;51.460;7.158;2022-11-06T14:41:55;1.27;;;0.83;;
13568;SDS011;6856;51.460;7.158;2022-11-06T14:44:40;2.40;;;1.00;;
13568;SDS011;6856;51.460;7.158;2022-11-06T14:50:25;2.87;;;1.20;;
13568;SDS011;6856;51.460;7.158;2022-11-06T14:53:19;1.90;;;1.20;;
13568;SDS011;6856;51.460;7.158;2022-11-06T14:56:00;2.20;;;1.23;;
13568;SDS011;6856;51.460;7.158;2022-11-06T14:58:39;3.63;;;1.00;;
13568;SDS011;6856;51.460;7.158;2022-11-06T15:01:23;2.50;;;1.20;;
13568;SDS011;6856;51.460;7.158;2022-11-06T15:04:03;3.17;;;1.17;;
13568;SDS011;6856;51.460;7.158;2022-11-06T15:06:47;1.60;;;1.00;;
13568;SDS011;6856;51.460;7.158;2022-11-06T15:12:18;1.07;;;0.97;;
13568;SDS011;6856;51.460;7.158;2022-11-06T15:15:38;1.73;;;1.03;;
13568;SDS011;6856;51.460;7.158;2022-11-06T15:18:15;2.70;;;0.90;;
13568;SDS011;6856;51.460;7.158;2022-11-06T15:20:55;4.13;;;1.27;;
13568;SDS011;6856;51.460;7.158;2022-11-06T15:23:35;2.90;;;1.40;;
13568;SDS011;6856;51.460;7.158;2022-11-06T15:26:19;2.57;;;1.20;;
13568;SDS011;6856;51.460;7.158;2022-11-06T15:29:10;2.67;;;1.30;;
13568;SDS011;6856;51.460;7.158;2022-11-06T15:31:52;2.83;;;1.20;;
13568;SDS011;6856;51.460;7.158;2022-11-06T15:34:35;2.67;;;1.30;;
13568;SDS011;6856;51.460;7.158;2022-11-06T15:37:15;2.83;;;1.03;;
13568;SDS011;6856;51.460;7.158;2022-11-06T15:39:53;4.07;;;1.30;;
13568;SDS011;6856;51.460;7.158;2022-11-06T15:42:32;1.57;;;1.10;;
13568;SDS011;6856;51.460;7.158;2022-11-06T15:45:08;1.90;;;1.10;;
13568;SDS011;6856;51.460;7.158;2022-11-06T15:47:56;2.03;;;1.40;;
13568;SDS011;6856;51.460;7.158;2022-11-06T15:50:32;2.60;;;1.30;;
13568;SDS011;6856;51.460;7.158;2022-11-06T15:53:14;2.23;;;1.20;;
13568;SDS011;6856;51.460;7.158;2022-11-06T15:55:53;2.57;;;1.30;;
13568;SDS011;6856;51.460;7.158;2022-11-06T15:58:32;2.47;;;1.30;;
13568;SDS011;6856;51.460;7.158;2022-11-06T16:01:09;1.63;;;1.00;;
13568;SDS011;6856;51.460;7.158;2022-11-06T16:03:43;2.33;;;1.30;;
13568;SDS011;6856;51.460;7.158;2022-11-06T16:06:22;2.37;;;1.33;;
13568;SDS011;6856;51.460;7.158;2022-11-06T16:08:58;2.30;;;1.50;;
13568;SDS011;6856;51.460;7.158;2022-11-06T16:11:36;1.67;;;1.10;;
13568;SDS011;6856;51.460;7.158;2022-11-06T16:14:10;1.80;;;1.20;;
13568;SDS011;6856;51.460;7.158;2022-11-06T16:16:46;2.53;;;1.17;;
13568;SDS011;6856;51.460;7.158;2022-11-06T16:19:24;2.73;;;1.10;;
13568;SDS011;6856;51.460;7.158;2022-11-06T16:22:04;1.83;;;1.20;;
13568;SDS011;6856;51.460;7.158;2022-11-06T16:24:44;2.67;;;1.37;;
13568;SDS011;6856;51.460;7.158;2022-11-06T16:27:23;1.60;;;1.30;;
13568;SDS011;6856;51.460;7.158;2022-11-06T16:29:58;2.73;;;1.40;;
13568;SDS011;6856;51.460;7.158;2022-11-06T16:32:36;1.53;;;1.10;;
13568;SDS011;6856;51.460;7.158;2022-11-06T16:35:31;1.43;;;1.20;;
13568;SDS011;6856;51.460;7.158;2022-11-06T16:41:14;1.93;;;1.17;;
13568;SDS011;6856;51.460;7.158;2022-11-06T16:44:22;1.87;;;1.20;;
13568;SDS011;6856;51.460;7.158;2022-11-06T16:47:09;1.90;;;1.23;;